Woodland, WA (98674)

6:27 AM PDT on May 05, 2015 (GMT -0700)
Woodland | | Change Station
CLOSE
Current Station
Personal Weather Station
Location: Woodland, WA
Elevation: 25 ft
Nearby Weather Stations

Elev 25 ft 45.93 °N, 122.71 °W | Updated 3 seconds ago

Overcast
Overcast
46.4 °F
Feels Like 46 °F
N
0.0
Wind Variable Wind from ESE
Gusts 0.0 mph

Today
High -- | Low -- °F
--% Chance of Precip.
Yesterday
High -- | Low -- °F
Precip. -- in
5:52 AM 8:23 PM
Full, 98% visible
Pressure 30.06 in
Visibility 10.0 miles
Clouds Few 4800 ft
Few 8000 ft
Overcast 10000 ft
Windchill 46 °F
Dew Point 46 °F
Humidity 99%
Rainfall 0.00 in
Snow Depth Not available.
UV 0.0 out of 12
Pollen 4.60 out of 12
Air Quality Not available.
Flu Activity Sporadic
METAR KSPB 051253Z AUTO 00000KT 10SM FEW048 FEW080 OVC100 07/05 A3006 RMK AO2 RAB1154E07 SLP178 P0000 T00670050

More Conditions Fewer Conditions

Pressure 30.06 in
Visibility 10.0 miles
Clouds Few 4800 ft
Few 8000 ft
Overcast 10000 ft
Windchill 46 °F
Dew Point 46 °F
Humidity 99%
Rainfall 0.00 in
Snow Depth Not available.
UV 0.0 out of 12
Pollen 4.60 out of 12
Air Quality Not available.
Flu Activity Sporadic
METAR KSPB 051253Z AUTO 00000KT 10SM FEW048 FEW080 OVC100 07/05 A3006 RMK AO2 RAB1154E07 SLP178 P0000 T00670050

More Conditions Fewer Conditions

Nepal has a long way to go to dig out and rebuild from a devastating earthquake. We have teamed up with several charities and organizations to make contributing to the relief effort as easy as possible.
How you can help: Portlight Strategies | Red Cross

10-Day Weather Forecast

Almanac

Astronomy

May. 05, 2015 Rise Set
Actual Time
Civil Twilight
Nautical Twilight
Astronomical Twilight
Moon
Length of Visible Light
Length of Day
Tomorrow will be .
, % of the Moon is Illuminated

Today's Extremes

State Highs State Lows

Community

WunderPhotos

Upload Photos

1,818,880 photos uploaded!

WunderBlogs® & News

Nearby

Air Quality

  Air Quality AQ Index Pollutant
Not available.

Snow Depth

Station Depth Elevation

Earthquake Activity

City Distance Mag. Time & Date
Minimum magnitude displayed is 2.5.

Coastal Water Temperatures

Place Temperature

Stations

Nearby Weather Stations

Station Location Temp. Windchill Dew Point Humidity Wind Precip. Elev Updated Type